Meath Environmental Platform

Observations for Trim Patrick St

Time AQI Temp °C Hum % Pres Pa CO μg/m³ H₂S μg/m³ NO μg/m³ NO₂ μg/m³ O₃ μg/m³ SO₂ μg/m³ PM1 μg/m³ PM2.5 μg/m³ PM10 μg/m³
Tuesday 4 August 2026
10:45 1 25.5 63 38,460 0 0 1.71 3.49 26.57 11.55 2 5.6 6.16
10:44 1 25.5 62 38,460 0 0 1.72 4.34 19.56 11.42 2 5.68 6.24
10:43 1 25.6 62 38,460 0 0 1.65 2.46 17.2 11.5 2 5.66 6.22
10:42 1 25.6 62 38,460 0 0 1.7 1.93 3.7 11.46 2 5.67 6.24
10:41 1 25.7 62 38,460 0 0 2.06 4.12 20.53 11.44 2 5.63 6.19
10:40 1 25.8 62 38,460 0 0 2.17 4.05 10.78 11.48 2 5.66 6.22
10:39 1 25.8 62 38,460 0.03 0 2.18 4.54 0 11.31 2 5.64 6.2
10:38 1 25.8 63 38,460 0.11 0 2.31 7.56 1.16 11.53 2 5.6 6.16
10:37 1 25.9 63 38,460 0.09 0 2.21 5.86 0.44 12.5 2 5.59 6.15
10:36 1 25.9 63 38,460 0.12 0 2.33 10.46 9.48 11.32 2 5.62 6.18
10:35 1 25.9 62 38,460 0.12 0 2.28 7.29 7.48 11.33 2 5.62 6.19
10:34 1 25.9 64 38,460 0.11 0 2.43 7 14.11 11.36 2 6.3 6.93
10:33 2 25.8 63 38,460 0.15 0 2.34 7.4 3.74 11.75 2 5.59 6.15
10:32 2 25.8 65 38,460 0.11 0 2.15 7.97 13.21 11.17 2 5.45 6
10:31 2 25.7 64 38,460 0.22 0 2.07 8.61 9.33 12.12 2 5.53 6.08
10:30 2 25.6 64 38,460 0.11 0 2.06 11.73 27.02 10.81 2 5.5 6.05
10:29 2 25.4 65 38,460 0.09 0 1.91 9.9 30.26 10.17 2 5.47 6.02
10:28 2 25.3 65 38,460 0.09 0 1.88 7.44 18.66 10.01 2 6.19 6.81
10:27 2 25.1 67 38,460 0.06 0 1.95 12.05 41.49 10.75 2 5.36 5.9
10:26 2 24.9 67 38,460 0.03 0 1.91 12.51 33.31 9.99 2 5.36 5.9